sensor_id;sensor_type;location;lat;lon;timestamp;P1;durP1;ratioP1;P2;durP2;ratioP2
4391;SDS011;2210;51.938;8.488;2023-02-15T00:03:00;4.80;;;4.40;;
4391;SDS011;2210;51.938;8.488;2023-02-15T00:07:03;4.68;;;4.25;;
4391;SDS011;2210;51.938;8.488;2023-02-15T00:11:07;4.93;;;4.53;;
4391;SDS011;2210;51.938;8.488;2023-02-15T00:15:14;4.87;;;4.27;;
4391;SDS011;2210;51.938;8.488;2023-02-15T00:19:18;4.40;;;4.10;;
4391;SDS011;2210;51.938;8.488;2023-02-15T00:23:32;4.00;;;3.70;;
4391;SDS011;2210;51.938;8.488;2023-02-15T00:27:42;4.50;;;3.80;;
4391;SDS011;2210;51.938;8.488;2023-02-15T00:31:46;5.10;;;4.60;;
4391;SDS011;2210;51.938;8.488;2023-02-15T00:35:46;5.57;;;4.10;;
4391;SDS011;2210;51.938;8.488;2023-02-15T00:39:46;4.60;;;4.03;;
4391;SDS011;2210;51.938;8.488;2023-02-15T00:43:47;4.43;;;4.03;;
4391;SDS011;2210;51.938;8.488;2023-02-15T00:47:47;4.97;;;4.50;;
4391;SDS011;2210;51.938;8.488;2023-02-15T00:51:51;4.60;;;4.20;;
4391;SDS011;2210;51.938;8.488;2023-02-15T00:55:52;3.87;;;3.57;;
4391;SDS011;2210;51.938;8.488;2023-02-15T00:59:52;5.30;;;4.70;;
4391;SDS011;2210;51.938;8.488;2023-02-15T01:03:53;5.20;;;4.68;;
4391;SDS011;2210;51.938;8.488;2023-02-15T01:07:53;5.30;;;3.97;;
4391;SDS011;2210;51.938;8.488;2023-02-15T01:11:53;5.78;;;4.88;;
4391;SDS011;2210;51.938;8.488;2023-02-15T01:15:54;4.73;;;4.20;;
4391;SDS011;2210;51.938;8.488;2023-02-15T01:19:58;4.63;;;4.13;;
4391;SDS011;2210;51.938;8.488;2023-02-15T01:23:59;4.77;;;4.37;;
4391;SDS011;2210;51.938;8.488;2023-02-15T01:27:59;4.25;;;3.63;;
4391;SDS011;2210;51.938;8.488;2023-02-15T01:31:59;5.23;;;4.50;;
4391;SDS011;2210;51.938;8.488;2023-02-15T01:36:00;4.33;;;3.90;;
4391;SDS011;2210;51.938;8.488;2023-02-15T01:40:00;4.10;;;3.70;;
4391;SDS011;2210;51.938;8.488;2023-02-15T01:44:02;4.33;;;3.93;;
4391;SDS011;2210;51.938;8.488;2023-02-15T01:48:17;5.57;;;4.47;;
4391;SDS011;2210;51.938;8.488;2023-02-15T01:52:21;5.97;;;4.80;;
4391;SDS011;2210;51.938;8.488;2023-02-15T01:56:25;3.80;;;3.50;;
4391;SDS011;2210;51.938;8.488;2023-02-15T02:00:32;5.27;;;4.53;;
4391;SDS011;2210;51.938;8.488;2023-02-15T02:04:41;4.20;;;3.80;;
4391;SDS011;2210;51.938;8.488;2023-02-15T02:08:47;4.70;;;4.30;;
4391;SDS011;2210;51.938;8.488;2023-02-15T02:12:49;4.37;;;3.53;;
4391;SDS011;2210;51.938;8.488;2023-02-15T02:17:02;5.07;;;4.20;;
4391;SDS011;2210;51.938;8.488;2023-02-15T02:21:22;5.43;;;4.30;;
4391;SDS011;2210;51.938;8.488;2023-02-15T02:34:40;6.70;;;4.23;;
4391;SDS011;2210;51.938;8.488;2023-02-15T02:38:52;5.60;;;4.20;;
4391;SDS011;2210;51.938;8.488;2023-02-15T02:43:51;4.97;;;4.47;;
4391;SDS011;2210;51.938;8.488;2023-02-15T02:47:40;4.20;;;3.50;;
4391;SDS011;2210;51.938;8.488;2023-02-15T02:51:59;5.27;;;4.77;;
4391;SDS011;2210;51.938;8.488;2023-02-15T02:56:18;6.33;;;4.37;;
4391;SDS011;2210;51.938;8.488;2023-02-15T03:00:24;4.30;;;3.90;;
4391;SDS011;2210;51.938;8.488;2023-02-15T03:04:28;3.93;;;3.63;;
4391;SDS011;2210;51.938;8.488;2023-02-15T03:08:35;4.43;;;4.03;;
4391;SDS011;2210;51.938;8.488;2023-02-15T03:12:38;4.90;;;4.37;;
4391;SDS011;2210;51.938;8.488;2023-02-15T03:16:43;6.13;;;4.50;;
4391;SDS011;2210;51.938;8.488;2023-02-15T03:20:47;4.23;;;3.83;;
4391;SDS011;2210;51.938;8.488;2023-02-15T03:24:57;5.40;;;4.33;;
4391;SDS011;2210;51.938;8.488;2023-02-15T03:29:02;4.20;;;3.70;;
4391;SDS011;2210;51.938;8.488;2023-02-15T03:33:08;4.73;;;3.93;;
4391;SDS011;2210;51.938;8.488;2023-02-15T03:41:32;4.10;;;3.70;;
4391;SDS011;2210;51.938;8.488;2023-02-15T03:45:38;5.87;;;4.60;;
4391;SDS011;2210;51.938;8.488;2023-02-15T03:49:59;4.57;;;4.10;;
4391;SDS011;2210;51.938;8.488;2023-02-15T03:54:10;5.30;;;4.80;;
4391;SDS011;2210;51.938;8.488;2023-02-15T03:58:34;4.33;;;3.93;;
4391;SDS011;2210;51.938;8.488;2023-02-15T04:07:17;5.37;;;4.57;;
4391;SDS011;2210;51.938;8.488;2023-02-15T04:11:17;4.20;;;3.90;;
4391;SDS011;2210;51.938;8.488;2023-02-15T04:15:18;4.60;;;4.18;;
4391;SDS011;2210;51.938;8.488;2023-02-15T04:19:46;7.27;;;4.60;;
4391;SDS011;2210;51.938;8.488;2023-02-15T04:24:05;4.53;;;4.10;;
4391;SDS011;2210;51.938;8.488;2023-02-15T04:28:27;4.43;;;4.03;;
4391;SDS011;2210;51.938;8.488;2023-02-15T04:32:31;4.37;;;3.97;;
4391;SDS011;2210;51.938;8.488;2023-02-15T04:36:31;5.53;;;4.40;;
4391;SDS011;2210;51.938;8.488;2023-02-15T04:40:31;4.57;;;4.17;;
4391;SDS011;2210;51.938;8.488;2023-02-15T04:44:31;5.70;;;4.43;;
4391;SDS011;2210;51.938;8.488;2023-02-15T04:48:35;4.72;;;4.22;;
4391;SDS011;2210;51.938;8.488;2023-02-15T04:52:35;4.87;;;4.33;;
4391;SDS011;2210;51.938;8.488;2023-02-15T04:56:39;4.40;;;3.93;;
4391;SDS011;2210;51.938;8.488;2023-02-15T05:00:39;4.57;;;4.17;;
4391;SDS011;2210;51.938;8.488;2023-02-15T05:04:39;5.20;;;4.70;;
4391;SDS011;2210;51.938;8.488;2023-02-15T05:08:39;5.40;;;4.50;;
4391;SDS011;2210;51.938;8.488;2023-02-15T05:12:40;4.77;;;4.37;;
4391;SDS011;2210;51.938;8.488;2023-02-15T05:16:43;4.70;;;4.30;;
4391;SDS011;2210;51.938;8.488;2023-02-15T05:20:43;4.80;;;4.20;;
4391;SDS011;2210;51.938;8.488;2023-02-15T05:24:47;5.90;;;4.10;;
4391;SDS011;2210;51.938;8.488;2023-02-15T05:29:06;5.27;;;4.30;;
4391;SDS011;2210;51.938;8.488;2023-02-15T05:33:07;4.50;;;4.10;;
4391;SDS011;2210;51.938;8.488;2023-02-15T05:37:10;5.00;;;4.00;;
4391;SDS011;2210;51.938;8.488;2023-02-15T05:41:11;3.93;;;3.63;;
4391;SDS011;2210;51.938;8.488;2023-02-15T05:45:11;4.83;;;4.33;;
4391;SDS011;2210;51.938;8.488;2023-02-15T05:49:14;5.25;;;4.45;;
4391;SDS011;2210;51.938;8.488;2023-02-15T05:53:17;4.57;;;3.77;;
4391;SDS011;2210;51.938;8.488;2023-02-15T05:57:20;5.13;;;4.73;;
4391;SDS011;2210;51.938;8.488;2023-02-15T06:01:21;4.40;;;3.60;;
4391;SDS011;2210;51.938;8.488;2023-02-15T06:05:22;4.77;;;4.27;;
4391;SDS011;2210;51.938;8.488;2023-02-15T06:09:23;5.70;;;5.00;;
4391;SDS011;2210;51.938;8.488;2023-02-15T06:13:23;5.13;;;4.65;;
4391;SDS011;2210;51.938;8.488;2023-02-15T06:17:29;6.13;;;5.17;;
4391;SDS011;2210;51.938;8.488;2023-02-15T06:21:33;5.93;;;4.47;;
4391;SDS011;2210;51.938;8.488;2023-02-15T06:25:33;5.60;;;4.90;;
4391;SDS011;2210;51.938;8.488;2023-02-15T06:29:33;6.80;;;4.97;;
4391;SDS011;2210;51.938;8.488;2023-02-15T06:33:33;4.53;;;4.13;;
4391;SDS011;2210;51.938;8.488;2023-02-15T06:37:34;5.70;;;5.10;;
4391;SDS011;2210;51.938;8.488;2023-02-15T06:41:34;7.10;;;5.20;;
4391;SDS011;2210;51.938;8.488;2023-02-15T06:45:34;6.13;;;5.53;;
4391;SDS011;2210;51.938;8.488;2023-02-15T06:49:43;8.43;;;5.97;;
4391;SDS011;2210;51.938;8.488;2023-02-15T06:53:55;7.57;;;5.67;;
4391;SDS011;2210;51.938;8.488;2023-02-15T06:57:56;7.20;;;5.67;;
4391;SDS011;2210;51.938;8.488;2023-02-15T07:01:59;6.70;;;5.10;;
4391;SDS011;2210;51.938;8.488;2023-02-15T07:06:00;6.03;;;5.30;;
4391;SDS011;2210;51.938;8.488;2023-02-15T07:10:02;7.33;;;5.60;;
4391;SDS011;2210;51.938;8.488;2023-02-15T07:14:02;5.55;;;4.63;;
4391;SDS011;2210;51.938;8.488;2023-02-15T07:18:05;8.00;;;5.47;;
4391;SDS011;2210;51.938;8.488;2023-02-15T07:22:08;5.63;;;5.10;;
4391;SDS011;2210;51.938;8.488;2023-02-15T07:26:09;6.17;;;4.90;;
4391;SDS011;2210;51.938;8.488;2023-02-15T07:30:10;5.63;;;4.47;;
4391;SDS011;2210;51.938;8.488;2023-02-15T07:34:12;5.60;;;5.07;;
4391;SDS011;2210;51.938;8.488;2023-02-15T07:38:12;5.07;;;4.60;;
4391;SDS011;2210;51.938;8.488;2023-02-15T07:42:12;5.93;;;4.90;;
4391;SDS011;2210;51.938;8.488;2023-02-15T07:46:14;5.07;;;4.68;;
4391;SDS011;2210;51.938;8.488;2023-02-15T07:50:15;6.80;;;5.73;;
4391;SDS011;2210;51.938;8.488;2023-02-15T07:54:19;6.80;;;5.07;;
4391;SDS011;2210;51.938;8.488;2023-02-15T07:58:19;4.90;;;4.40;;
4391;SDS011;2210;51.938;8.488;2023-02-15T08:02:19;5.97;;;4.70;;
4391;SDS011;2210;51.938;8.488;2023-02-15T08:06:20;5.97;;;5.10;;
4391;SDS011;2210;51.938;8.488;2023-02-15T08:10:22;8.33;;;5.40;;
4391;SDS011;2210;51.938;8.488;2023-02-15T08:14:45;5.53;;;5.03;;
4391;SDS011;2210;51.938;8.488;2023-02-15T08:18:45;5.93;;;5.23;;
4391;SDS011;2210;51.938;8.488;2023-02-15T08:22:48;5.32;;;4.78;;
4391;SDS011;2210;51.938;8.488;2023-02-15T08:26:52;7.20;;;5.97;;
4391;SDS011;2210;51.938;8.488;2023-02-15T08:30:53;7.50;;;5.73;;
4391;SDS011;2210;51.938;8.488;2023-02-15T08:34:56;8.60;;;5.70;;
4391;SDS011;2210;51.938;8.488;2023-02-15T08:39:03;6.60;;;5.50;;
4391;SDS011;2210;51.938;8.488;2023-02-15T08:43:14;6.13;;;5.53;;
4391;SDS011;2210;51.938;8.488;2023-02-15T08:47:15;6.37;;;4.83;;
4391;SDS011;2210;51.938;8.488;2023-02-15T08:51:20;4.95;;;4.45;;
4391;SDS011;2210;51.938;8.488;2023-02-15T08:55:21;6.17;;;5.47;;
4391;SDS011;2210;51.938;8.488;2023-02-15T08:59:22;6.65;;;5.85;;
4391;SDS011;2210;51.938;8.488;2023-02-15T09:03:23;5.67;;;4.77;;
4391;SDS011;2210;51.938;8.488;2023-02-15T09:07:23;8.70;;;5.87;;
4391;SDS011;2210;51.938;8.488;2023-02-15T09:11:28;5.10;;;4.60;;
4391;SDS011;2210;51.938;8.488;2023-02-15T09:15:29;7.00;;;5.73;;
4391;SDS011;2210;51.938;8.488;2023-02-15T09:19:29;6.57;;;5.87;;
4391;SDS011;2210;51.938;8.488;2023-02-15T09:23:29;6.40;;;5.20;;
4391;SDS011;2210;51.938;8.488;2023-02-15T09:27:32;7.05;;;5.93;;
4391;SDS011;2210;51.938;8.488;2023-02-15T09:31:36;7.70;;;6.40;;
4391;SDS011;2210;51.938;8.488;2023-02-15T09:35:38;5.83;;;5.23;;
4391;SDS011;2210;51.938;8.488;2023-02-15T09:39:39;7.53;;;5.50;;
4391;SDS011;2210;51.938;8.488;2023-02-15T09:44:05;7.00;;;6.20;;
4391;SDS011;2210;51.938;8.488;2023-02-15T10:01:48;6.67;;;4.97;;
4391;SDS011;2210;51.938;8.488;2023-02-15T10:06:14;6.97;;;6.07;;
4391;SDS011;2210;51.938;8.488;2023-02-15T10:19:14;9.53;;;6.43;;
4391;SDS011;2210;51.938;8.488;2023-02-15T10:27:49;7.60;;;6.33;;
4391;SDS011;2210;51.938;8.488;2023-02-15T10:32:03;7.50;;;5.40;;
4391;SDS011;2210;51.938;8.488;2023-02-15T10:41:04;8.03;;;6.10;;
4391;SDS011;2210;51.938;8.488;2023-02-15T10:49:26;10.40;;;6.63;;
4391;SDS011;2210;51.938;8.488;2023-02-15T11:06:58;11.60;;;6.97;;
4391;SDS011;2210;51.938;8.488;2023-02-15T11:11:04;7.70;;;6.10;;
4391;SDS011;2210;51.938;8.488;2023-02-15T11:15:15;11.70;;;6.70;;
4391;SDS011;2210;51.938;8.488;2023-02-15T11:19:26;10.33;;;6.80;;
4391;SDS011;2210;51.938;8.488;2023-02-15T11:23:33;7.90;;;6.67;;
4391;SDS011;2210;51.938;8.488;2023-02-15T11:27:42;12.13;;;8.40;;
4391;SDS011;2210;51.938;8.488;2023-02-15T11:31:46;13.90;;;10.00;;
4391;SDS011;2210;51.938;8.488;2023-02-15T11:35:50;13.20;;;10.60;;
4391;SDS011;2210;51.938;8.488;2023-02-15T11:39:58;10.97;;;8.23;;
4391;SDS011;2210;51.938;8.488;2023-02-15T11:48:20;10.63;;;7.80;;
4391;SDS011;2210;51.938;8.488;2023-02-15T11:52:20;10.07;;;7.23;;
4391;SDS011;2210;51.938;8.488;2023-02-15T11:56:27;13.93;;;9.20;;
4391;SDS011;2210;51.938;8.488;2023-02-15T12:00:40;11.13;;;8.63;;
4391;SDS011;2210;51.938;8.488;2023-02-15T12:04:44;14.60;;;9.70;;
4391;SDS011;2210;51.938;8.488;2023-02-15T12:08:59;11.20;;;8.20;;
4391;SDS011;2210;51.938;8.488;2023-02-15T12:13:15;10.67;;;7.70;;
4391;SDS011;2210;51.938;8.488;2023-02-15T12:17:17;12.40;;;8.57;;
4391;SDS011;2210;51.938;8.488;2023-02-15T12:21:27;14.03;;;10.50;;
4391;SDS011;2210;51.938;8.488;2023-02-15T12:29:57;16.80;;;9.23;;
4391;SDS011;2210;51.938;8.488;2023-02-15T12:34:03;15.13;;;9.80;;
4391;SDS011;2210;51.938;8.488;2023-02-15T12:42:15;15.02;;;9.05;;
4391;SDS011;2210;51.938;8.488;2023-02-15T12:46:24;15.47;;;10.00;;
4391;SDS011;2210;51.938;8.488;2023-02-15T12:50:29;12.93;;;8.97;;
4391;SDS011;2210;51.938;8.488;2023-02-15T12:54:45;15.67;;;10.00;;
4391;SDS011;2210;51.938;8.488;2023-02-15T12:58:53;15.50;;;10.37;;
4391;SDS011;2210;51.938;8.488;2023-02-15T13:03:13;15.73;;;10.20;;
4391;SDS011;2210;51.938;8.488;2023-02-15T13:07:17;15.13;;;10.50;;
4391;SDS011;2210;51.938;8.488;2023-02-15T13:11:30;19.03;;;11.13;;
4391;SDS011;2210;51.938;8.488;2023-02-15T13:15:35;15.07;;;10.17;;
4391;SDS011;2210;51.938;8.488;2023-02-15T13:23:57;18.73;;;11.07;;
4391;SDS011;2210;51.938;8.488;2023-02-15T13:28:01;14.17;;;10.50;;
4391;SDS011;2210;51.938;8.488;2023-02-15T13:32:10;16.97;;;10.60;;
4391;SDS011;2210;51.938;8.488;2023-02-15T13:41:15;16.93;;;9.73;;
4391;SDS011;2210;51.938;8.488;2023-02-15T13:45:35;18.23;;;10.13;;
4391;SDS011;2210;51.938;8.488;2023-02-15T13:58:59;14.87;;;10.10;;
4391;SDS011;2210;51.938;8.488;2023-02-15T14:17:02;19.23;;;10.57;;
4391;SDS011;2210;51.938;8.488;2023-02-15T14:21:32;17.80;;;10.60;;
4391;SDS011;2210;51.938;8.488;2023-02-15T14:25:40;17.57;;;11.17;;
4391;SDS011;2210;51.938;8.488;2023-02-15T14:29:50;17.57;;;10.83;;
4391;SDS011;2210;51.938;8.488;2023-02-15T14:33:59;16.80;;;10.53;;
4391;SDS011;2210;51.938;8.488;2023-02-15T14:42:30;19.07;;;11.30;;
4391;SDS011;2210;51.938;8.488;2023-02-15T14:50:59;15.17;;;10.33;;
4391;SDS011;2210;51.938;8.488;2023-02-15T14:55:00;17.63;;;10.55;;
4391;SDS011;2210;51.938;8.488;2023-02-15T14:59:11;16.43;;;10.10;;
4391;SDS011;2210;51.938;8.488;2023-02-15T15:03:19;14.77;;;9.30;;
4391;SDS011;2210;51.938;8.488;2023-02-15T15:11:47;14.17;;;9.60;;
4391;SDS011;2210;51.938;8.488;2023-02-15T15:15:51;15.40;;;9.90;;
4391;SDS011;2210;51.938;8.488;2023-02-15T15:23:53;12.95;;;9.85;;
4391;SDS011;2210;51.938;8.488;2023-02-15T15:27:56;15.65;;;9.40;;
4391;SDS011;2210;51.938;8.488;2023-02-15T15:31:56;13.43;;;9.20;;
4391;SDS011;2210;51.938;8.488;2023-02-15T15:36:07;13.60;;;9.63;;
4391;SDS011;2210;51.938;8.488;2023-02-15T15:40:29;13.47;;;8.67;;
4391;SDS011;2210;51.938;8.488;2023-02-15T15:49:10;17.20;;;10.80;;
4391;SDS011;2210;51.938;8.488;2023-02-15T15:53:18;18.20;;;10.63;;
4391;SDS011;2210;51.938;8.488;2023-02-15T15:57:39;14.33;;;9.80;;
4391;SDS011;2210;51.938;8.488;2023-02-15T16:01:43;14.97;;;9.80;;
4391;SDS011;2210;51.938;8.488;2023-02-15T16:05:44;16.27;;;10.20;;
4391;SDS011;2210;51.938;8.488;2023-02-15T16:09:54;16.93;;;9.97;;
4391;SDS011;2210;51.938;8.488;2023-02-15T16:14:24;18.00;;;10.90;;
4391;SDS011;2210;51.938;8.488;2023-02-15T16:18:28;14.60;;;10.50;;
4391;SDS011;2210;51.938;8.488;2023-02-15T16:22:29;15.63;;;10.03;;
4391;SDS011;2210;51.938;8.488;2023-02-15T16:26:43;15.50;;;10.03;;
4391;SDS011;2210;51.938;8.488;2023-02-15T16:30:58;20.50;;;10.70;;
4391;SDS011;2210;51.938;8.488;2023-02-15T16:35:13;15.87;;;9.97;;
4391;SDS011;2210;51.938;8.488;2023-02-15T16:39:19;16.87;;;10.50;;
4391;SDS011;2210;51.938;8.488;2023-02-15T16:43:22;14.60;;;10.53;;
4391;SDS011;2210;51.938;8.488;2023-02-15T16:47:27;14.27;;;10.10;;
4391;SDS011;2210;51.938;8.488;2023-02-15T16:51:31;12.57;;;9.30;;
4391;SDS011;2210;51.938;8.488;2023-02-15T16:55:38;15.90;;;10.80;;
4391;SDS011;2210;51.938;8.488;2023-02-15T16:59:41;15.67;;;11.30;;
4391;SDS011;2210;51.938;8.488;2023-02-15T17:03:50;14.87;;;11.80;;
4391;SDS011;2210;51.938;8.488;2023-02-15T17:08:04;13.70;;;8.93;;
4391;SDS011;2210;51.938;8.488;2023-02-15T17:12:08;13.20;;;9.50;;
4391;SDS011;2210;51.938;8.488;2023-02-15T17:16:20;31.87;;;18.10;;
4391;SDS011;2210;51.938;8.488;2023-02-15T17:20:32;14.13;;;10.27;;
4391;SDS011;2210;51.938;8.488;2023-02-15T17:24:34;13.27;;;8.83;;
4391;SDS011;2210;51.938;8.488;2023-02-15T17:28:45;36.00;;;21.30;;
4391;SDS011;2210;51.938;8.488;2023-02-15T17:32:55;17.93;;;12.60;;
4391;SDS011;2210;51.938;8.488;2023-02-15T17:36:57;16.50;;;10.67;;
4391;SDS011;2210;51.938;8.488;2023-02-15T17:40:59;10.80;;;8.10;;
4391;SDS011;2210;51.938;8.488;2023-02-15T17:44:59;10.97;;;7.57;;
4391;SDS011;2210;51.938;8.488;2023-02-15T17:49:02;7.93;;;6.82;;
4391;SDS011;2210;51.938;8.488;2023-02-15T17:53:04;8.57;;;7.00;;
4391;SDS011;2210;51.938;8.488;2023-02-15T17:57:08;8.67;;;7.07;;
4391;SDS011;2210;51.938;8.488;2023-02-15T18:01:14;7.17;;;6.40;;
4391;SDS011;2210;51.938;8.488;2023-02-15T18:05:36;7.73;;;6.83;;
4391;SDS011;2210;51.938;8.488;2023-02-15T18:09:55;7.77;;;6.83;;
4391;SDS011;2210;51.938;8.488;2023-02-15T18:14:14;8.23;;;7.20;;
4391;SDS011;2210;51.938;8.488;2023-02-15T18:18:14;7.77;;;6.50;;
4391;SDS011;2210;51.938;8.488;2023-02-15T18:22:16;8.73;;;6.70;;
4391;SDS011;2210;51.938;8.488;2023-02-15T18:26:19;8.93;;;6.90;;
4391;SDS011;2210;51.938;8.488;2023-02-15T18:30:22;9.60;;;7.03;;
4391;SDS011;2210;51.938;8.488;2023-02-15T18:34:35;7.20;;;6.03;;
4391;SDS011;2210;51.938;8.488;2023-02-15T18:38:41;8.53;;;6.87;;
4391;SDS011;2210;51.938;8.488;2023-02-15T18:42:42;7.90;;;6.60;;
4391;SDS011;2210;51.938;8.488;2023-02-15T18:46:46;7.53;;;6.70;;
4391;SDS011;2210;51.938;8.488;2023-02-15T18:50:46;9.85;;;6.65;;
4391;SDS011;2210;51.938;8.488;2023-02-15T18:54:47;7.90;;;6.60;;
4391;SDS011;2210;51.938;8.488;2023-02-15T18:58:51;7.93;;;6.10;;
4391;SDS011;2210;51.938;8.488;2023-02-15T19:02:53;6.90;;;6.20;;
4391;SDS011;2210;51.938;8.488;2023-02-15T19:06:57;8.13;;;6.10;;
4391;SDS011;2210;51.938;8.488;2023-02-15T19:10:57;7.90;;;6.50;;
4391;SDS011;2210;51.938;8.488;2023-02-15T19:14:58;8.33;;;6.67;;
4391;SDS011;2210;51.938;8.488;2023-02-15T19:18:59;7.77;;;6.57;;
4391;SDS011;2210;51.938;8.488;2023-02-15T19:23:00;6.80;;;5.47;;
4391;SDS011;2210;51.938;8.488;2023-02-15T19:27:01;7.60;;;6.50;;
4391;SDS011;2210;51.938;8.488;2023-02-15T19:31:10;6.20;;;5.53;;
4391;SDS011;2210;51.938;8.488;2023-02-15T19:35:18;8.10;;;6.80;;
4391;SDS011;2210;51.938;8.488;2023-02-15T19:39:25;7.77;;;6.43;;
4391;SDS011;2210;51.938;8.488;2023-02-15T19:43:30;8.67;;;6.60;;
4391;SDS011;2210;51.938;8.488;2023-02-15T19:47:40;7.97;;;6.50;;
4391;SDS011;2210;51.938;8.488;2023-02-15T19:51:45;7.80;;;6.33;;
4391;SDS011;2210;51.938;8.488;2023-02-15T19:55:46;7.33;;;6.63;;
4391;SDS011;2210;51.938;8.488;2023-02-15T19:59:47;8.03;;;6.83;;
4391;SDS011;2210;51.938;8.488;2023-02-15T20:03:50;7.77;;;6.37;;
4391;SDS011;2210;51.938;8.488;2023-02-15T20:07:51;7.97;;;5.97;;
4391;SDS011;2210;51.938;8.488;2023-02-15T20:11:58;8.00;;;6.30;;
4391;SDS011;2210;51.938;8.488;2023-02-15T20:16:02;12.30;;;6.93;;
4391;SDS011;2210;51.938;8.488;2023-02-15T20:20:05;9.40;;;7.40;;
4391;SDS011;2210;51.938;8.488;2023-02-15T20:24:06;9.50;;;7.87;;
4391;SDS011;2210;51.938;8.488;2023-02-15T20:28:14;7.90;;;6.83;;
4391;SDS011;2210;51.938;8.488;2023-02-15T20:32:22;8.50;;;7.60;;
4391;SDS011;2210;51.938;8.488;2023-02-15T20:36:22;10.07;;;7.53;;
4391;SDS011;2210;51.938;8.488;2023-02-15T20:40:27;9.17;;;8.10;;
4391;SDS011;2210;51.938;8.488;2023-02-15T20:44:30;7.93;;;7.07;;
4391;SDS011;2210;51.938;8.488;2023-02-15T20:48:30;9.23;;;7.27;;
4391;SDS011;2210;51.938;8.488;2023-02-15T20:52:31;7.95;;;6.82;;
4391;SDS011;2210;51.938;8.488;2023-02-15T20:56:34;8.73;;;6.80;;
4391;SDS011;2210;51.938;8.488;2023-02-15T21:00:36;8.53;;;6.60;;
4391;SDS011;2210;51.938;8.488;2023-02-15T21:04:39;8.98;;;6.90;;
4391;SDS011;2210;51.938;8.488;2023-02-15T21:08:40;8.83;;;7.20;;
4391;SDS011;2210;51.938;8.488;2023-02-15T21:12:40;13.20;;;7.73;;
4391;SDS011;2210;51.938;8.488;2023-02-15T21:16:41;10.30;;;7.43;;
4391;SDS011;2210;51.938;8.488;2023-02-15T21:20:43;12.90;;;9.13;;
4391;SDS011;2210;51.938;8.488;2023-02-15T21:24:47;11.40;;;8.50;;
4391;SDS011;2210;51.938;8.488;2023-02-15T21:28:52;9.07;;;6.93;;
4391;SDS011;2210;51.938;8.488;2023-02-15T21:32:54;10.83;;;7.47;;
4391;SDS011;2210;51.938;8.488;2023-02-15T21:36:57;12.40;;;9.27;;
4391;SDS011;2210;51.938;8.488;2023-02-15T21:40:58;9.43;;;7.57;;
4391;SDS011;2210;51.938;8.488;2023-02-15T21:45:30;9.97;;;7.60;;
4391;SDS011;2210;51.938;8.488;2023-02-15T21:49:49;8.40;;;7.50;;
4391;SDS011;2210;51.938;8.488;2023-02-15T21:53:49;9.33;;;7.70;;
4391;SDS011;2210;51.938;8.488;2023-02-15T21:57:53;9.00;;;7.50;;
4391;SDS011;2210;51.938;8.488;2023-02-15T22:01:53;9.40;;;7.87;;
4391;SDS011;2210;51.938;8.488;2023-02-15T22:06:00;13.33;;;9.27;;
4391;SDS011;2210;51.938;8.488;2023-02-15T22:10:00;8.50;;;7.40;;
4391;SDS011;2210;51.938;8.488;2023-02-15T22:14:01;11.70;;;9.43;;
4391;SDS011;2210;51.938;8.488;2023-02-15T22:18:03;11.77;;;8.70;;
4391;SDS011;2210;51.938;8.488;2023-02-15T22:22:13;12.70;;;8.43;;
4391;SDS011;2210;51.938;8.488;2023-02-15T22:26:21;9.77;;;8.73;;
4391;SDS011;2210;51.938;8.488;2023-02-15T22:30:25;12.67;;;9.93;;
4391;SDS011;2210;51.938;8.488;2023-02-15T22:34:33;14.47;;;10.17;;
4391;SDS011;2210;51.938;8.488;2023-02-15T22:38:36;13.38;;;10.30;;
4391;SDS011;2210;51.938;8.488;2023-02-15T22:42:36;11.13;;;8.57;;
4391;SDS011;2210;51.938;8.488;2023-02-15T22:46:40;10.40;;;8.43;;
4391;SDS011;2210;51.938;8.488;2023-02-15T22:50:40;12.23;;;8.60;;
4391;SDS011;2210;51.938;8.488;2023-02-15T22:54:41;10.03;;;7.90;;
4391;SDS011;2210;51.938;8.488;2023-02-15T22:58:41;9.60;;;7.60;;
4391;SDS011;2210;51.938;8.488;2023-02-15T23:02:45;11.00;;;8.30;;
4391;SDS011;2210;51.938;8.488;2023-02-15T23:06:46;10.77;;;8.97;;
4391;SDS011;2210;51.938;8.488;2023-02-15T23:10:50;13.07;;;8.83;;
4391;SDS011;2210;51.938;8.488;2023-02-15T23:15:04;11.37;;;8.60;;
4391;SDS011;2210;51.938;8.488;2023-02-15T23:19:12;12.00;;;8.73;;
4391;SDS011;2210;51.938;8.488;2023-02-15T23:23:14;9.73;;;8.30;;
4391;SDS011;2210;51.938;8.488;2023-02-15T23:27:17;10.73;;;7.80;;
4391;SDS011;2210;51.938;8.488;2023-02-15T23:31:36;12.13;;;8.77;;
4391;SDS011;2210;51.938;8.488;2023-02-15T23:35:44;11.80;;;8.37;;
4391;SDS011;2210;51.938;8.488;2023-02-15T23:39:50;11.80;;;8.67;;
4391;SDS011;2210;51.938;8.488;2023-02-15T23:44:09;9.10;;;8.20;;
4391;SDS011;2210;51.938;8.488;2023-02-15T23:48:22;10.47;;;8.30;;
4391;SDS011;2210;51.938;8.488;2023-02-15T23:52:30;13.10;;;8.57;;
4391;SDS011;2210;51.938;8.488;2023-02-15T23:56:31;10.20;;;8.35;;
